Aviation Digital Data Service (ADDS)

Output produced by METARs form (1314 UTC 19 January 2019)
found at http://www.aviationweather.gov/metar/data/
 
Forecast for: VVDN (DA NANG INTL ARP, VN)
Text: TAF VVDN 191100Z 1912/2012 35006KT 7000 FEW015 BKN060
Forecast period: 1200 to 1400 UTC 19 January 2019
Forecast type: FROM: standard forecast or significant change
Winds: from the N (350 degrees) at 7 MPH (6 knots; 3.1 m/s)
Visibility: 4 miles (7 km)
Ceiling: 6000 feet AGL
Clouds: few clouds at 1500 feet AGL
broken clouds at 6000 feet AGL
Weather: no significant weather forecast for this period
Text: BECMG 1914/1915 3200 BR
Forecast period: 1400 UTC 19 January 2019 to 0000 UTC 20 January 2019
Forecast type: BECOMING: Conditions expected to become as follows by 1500 UTC 19 January 2019
Winds: from the N (350 degrees) at 7 MPH (6 knots; 3.1 m/s)
Visibility: 1.99 miles (3.20 km)
Ceiling: 6000 feet AGL
Clouds: few clouds at 1500 feet AGL
broken clouds at 6000 feet AGL
Weather: BR  (mist)
Text: BECMG 2000/2001 8000 NSW
Forecast period: 0000 to 1200 UTC 20 January 2019
Forecast type: BECOMING: Conditions expected to become as follows by 0100 UTC 20 January 2019
Winds: from the N (350 degrees) at 7 MPH (6 knots; 3.1 m/s)
Visibility: 5 miles (8 km)
Ceiling: 6000 feet AGL
Clouds: few clouds at 1500 feet AGL
broken clouds at 6000 feet AGL
Weather: NSW  (no significant weather)